sensor_id;sensor_type;location;lat;lon;timestamp;P1;durP1;ratioP1;P2;durP2;ratioP2
55633;SDS011;41504;53.162;6.788;2023-06-14T00:01:51;5.43;;;2.20;;
55633;SDS011;41504;53.162;6.788;2023-06-14T00:04:17;4.57;;;2.00;;
55633;SDS011;41504;53.162;6.788;2023-06-14T00:06:44;6.13;;;2.10;;
55633;SDS011;41504;53.162;6.788;2023-06-14T00:09:10;6.18;;;2.33;;
55633;SDS011;41504;53.162;6.788;2023-06-14T00:11:42;6.15;;;2.00;;
55633;SDS011;41504;53.162;6.788;2023-06-14T00:14:08;5.63;;;2.05;;
55633;SDS011;41504;53.162;6.788;2023-06-14T00:16:34;4.82;;;1.83;;
55633;SDS011;41504;53.162;6.788;2023-06-14T00:19:01;4.50;;;2.08;;
55633;SDS011;41504;53.162;6.788;2023-06-14T00:21:29;3.67;;;1.73;;
55633;SDS011;41504;53.162;6.788;2023-06-14T00:23:55;4.55;;;2.20;;
55633;SDS011;41504;53.162;6.788;2023-06-14T00:26:22;5.30;;;1.80;;
55633;SDS011;41504;53.162;6.788;2023-06-14T00:28:48;4.88;;;1.83;;
55633;SDS011;41504;53.162;6.788;2023-06-14T00:31:14;4.57;;;1.90;;
55633;SDS011;41504;53.162;6.788;2023-06-14T00:33:40;3.75;;;1.80;;
55633;SDS011;41504;53.162;6.788;2023-06-14T00:36:05;6.43;;;2.00;;
55633;SDS011;41504;53.162;6.788;2023-06-14T00:38:31;4.70;;;1.88;;
55633;SDS011;41504;53.162;6.788;2023-06-14T00:40:57;4.20;;;1.92;;
55633;SDS011;41504;53.162;6.788;2023-06-14T00:43:23;6.47;;;2.33;;
55633;SDS011;41504;53.162;6.788;2023-06-14T00:45:48;5.65;;;1.85;;
55633;SDS011;41504;53.162;6.788;2023-06-14T00:48:16;3.95;;;1.90;;
55633;SDS011;41504;53.162;6.788;2023-06-14T00:50:42;3.20;;;1.70;;
55633;SDS011;41504;53.162;6.788;2023-06-14T00:53:14;5.38;;;1.85;;
55633;SDS011;41504;53.162;6.788;2023-06-14T00:55:42;5.32;;;2.17;;
55633;SDS011;41504;53.162;6.788;2023-06-14T00:58:09;4.20;;;1.85;;
55633;SDS011;41504;53.162;6.788;2023-06-14T01:00:35;3.63;;;1.55;;
55633;SDS011;41504;53.162;6.788;2023-06-14T01:03:01;4.43;;;1.70;;
55633;SDS011;41504;53.162;6.788;2023-06-14T01:05:27;4.88;;;1.95;;
55633;SDS011;41504;53.162;6.788;2023-06-14T01:10:52;4.10;;;1.70;;
55633;SDS011;41504;53.162;6.788;2023-06-14T01:13:29;4.00;;;1.75;;
55633;SDS011;41504;53.162;6.788;2023-06-14T01:15:59;4.32;;;1.83;;
55633;SDS011;41504;53.162;6.788;2023-06-14T01:18:25;6.53;;;2.00;;
55633;SDS011;41504;53.162;6.788;2023-06-14T01:20:54;5.10;;;2.10;;
55633;SDS011;41504;53.162;6.788;2023-06-14T01:23:21;6.57;;;2.00;;
55633;SDS011;41504;53.162;6.788;2023-06-14T01:25:48;4.90;;;1.80;;
55633;SDS011;41504;53.162;6.788;2023-06-14T01:28:18;3.95;;;1.75;;
55633;SDS011;41504;53.162;6.788;2023-06-14T01:30:50;4.55;;;1.83;;
55633;SDS011;41504;53.162;6.788;2023-06-14T01:35:51;5.28;;;1.67;;
55633;SDS011;41504;53.162;6.788;2023-06-14T01:38:22;4.93;;;1.90;;
55633;SDS011;41504;53.162;6.788;2023-06-14T01:40:50;3.95;;;1.70;;
55633;SDS011;41504;53.162;6.788;2023-06-14T01:43:19;4.00;;;1.63;;
55633;SDS011;41504;53.162;6.788;2023-06-14T01:45:46;5.75;;;1.60;;
55633;SDS011;41504;53.162;6.788;2023-06-14T01:48:14;3.90;;;1.90;;
55633;SDS011;41504;53.162;6.788;2023-06-14T01:50:40;4.63;;;1.60;;
55633;SDS011;41504;53.162;6.788;2023-06-14T01:53:09;4.55;;;1.80;;
55633;SDS011;41504;53.162;6.788;2023-06-14T01:55:35;4.13;;;2.25;;
55633;SDS011;41504;53.162;6.788;2023-06-14T01:58:08;6.10;;;2.45;;
55633;SDS011;41504;53.162;6.788;2023-06-14T02:00:35;5.13;;;2.05;;
55633;SDS011;41504;53.162;6.788;2023-06-14T02:03:01;4.43;;;2.20;;
55633;SDS011;41504;53.162;6.788;2023-06-14T02:05:29;3.65;;;2.08;;
55633;SDS011;41504;53.162;6.788;2023-06-14T02:07:55;4.82;;;2.15;;
55633;SDS011;41504;53.162;6.788;2023-06-14T02:10:21;5.80;;;1.83;;
55633;SDS011;41504;53.162;6.788;2023-06-14T02:12:47;4.50;;;2.17;;
55633;SDS011;41504;53.162;6.788;2023-06-14T02:15:13;3.97;;;2.20;;
55633;SDS011;41504;53.162;6.788;2023-06-14T02:17:45;6.00;;;2.30;;
55633;SDS011;41504;53.162;6.788;2023-06-14T02:20:17;4.10;;;2.10;;
55633;SDS011;41504;53.162;6.788;2023-06-14T02:22:43;3.85;;;2.20;;
55633;SDS011;41504;53.162;6.788;2023-06-14T02:25:10;8.20;;;2.60;;
55633;SDS011;41504;53.162;6.788;2023-06-14T02:27:35;4.97;;;2.30;;
55633;SDS011;41504;53.162;6.788;2023-06-14T02:30:01;6.38;;;2.67;;
55633;SDS011;41504;53.162;6.788;2023-06-14T02:32:27;5.53;;;2.70;;
55633;SDS011;41504;53.162;6.788;2023-06-14T02:34:53;5.55;;;2.83;;
55633;SDS011;41504;53.162;6.788;2023-06-14T02:37:19;5.70;;;2.70;;
55633;SDS011;41504;53.162;6.788;2023-06-14T02:39:45;5.65;;;2.90;;
55633;SDS011;41504;53.162;6.788;2023-06-14T02:42:11;6.25;;;2.72;;
55633;SDS011;41504;53.162;6.788;2023-06-14T02:44:37;6.60;;;2.92;;
55633;SDS011;41504;53.162;6.788;2023-06-14T02:47:03;6.38;;;3.15;;
55633;SDS011;41504;53.162;6.788;2023-06-14T02:49:30;5.78;;;3.10;;
55633;SDS011;41504;53.162;6.788;2023-06-14T02:51:56;5.65;;;2.80;;
55633;SDS011;41504;53.162;6.788;2023-06-14T02:54:22;7.07;;;2.85;;
55633;SDS011;41504;53.162;6.788;2023-06-14T02:56:47;5.22;;;2.80;;
55633;SDS011;41504;53.162;6.788;2023-06-14T02:59:13;6.47;;;2.80;;
55633;SDS011;41504;53.162;6.788;2023-06-14T03:01:40;6.50;;;3.38;;
55633;SDS011;41504;53.162;6.788;2023-06-14T03:04:08;6.07;;;3.10;;
55633;SDS011;41504;53.162;6.788;2023-06-14T03:06:34;6.57;;;2.75;;
55633;SDS011;41504;53.162;6.788;2023-06-14T03:09:01;7.43;;;2.80;;
55633;SDS011;41504;53.162;6.788;2023-06-14T03:11:30;6.28;;;3.05;;
55633;SDS011;41504;53.162;6.788;2023-06-14T03:13:56;5.18;;;2.35;;
55633;SDS011;41504;53.162;6.788;2023-06-14T03:16:22;5.60;;;2.50;;
55633;SDS011;41504;53.162;6.788;2023-06-14T03:18:52;5.90;;;2.53;;
55633;SDS011;41504;53.162;6.788;2023-06-14T03:21:21;5.30;;;2.92;;
55633;SDS011;41504;53.162;6.788;2023-06-14T03:23:47;5.05;;;2.70;;
55633;SDS011;41504;53.162;6.788;2023-06-14T03:26:16;5.70;;;2.88;;
55633;SDS011;41504;53.162;6.788;2023-06-14T03:28:44;5.90;;;2.85;;
55633;SDS011;41504;53.162;6.788;2023-06-14T03:31:11;5.63;;;2.60;;
55633;SDS011;41504;53.162;6.788;2023-06-14T03:33:38;5.20;;;3.00;;
55633;SDS011;41504;53.162;6.788;2023-06-14T03:36:04;6.20;;;2.90;;
55633;SDS011;41504;53.162;6.788;2023-06-14T03:38:30;5.47;;;2.78;;
55633;SDS011;41504;53.162;6.788;2023-06-14T03:40:56;6.15;;;2.78;;
55633;SDS011;41504;53.162;6.788;2023-06-14T03:43:22;5.10;;;2.63;;
55633;SDS011;41504;53.162;6.788;2023-06-14T03:45:47;5.40;;;3.00;;
55633;SDS011;41504;53.162;6.788;2023-06-14T03:48:13;5.40;;;2.85;;
55633;SDS011;41504;53.162;6.788;2023-06-14T03:50:39;6.20;;;3.20;;
55633;SDS011;41504;53.162;6.788;2023-06-14T03:53:05;6.43;;;3.10;;
55633;SDS011;41504;53.162;6.788;2023-06-14T03:55:31;4.88;;;2.67;;
55633;SDS011;41504;53.162;6.788;2023-06-14T03:57:58;6.30;;;2.90;;
55633;SDS011;41504;53.162;6.788;2023-06-14T04:00:24;5.50;;;3.05;;
55633;SDS011;41504;53.162;6.788;2023-06-14T04:02:50;6.55;;;2.75;;
55633;SDS011;41504;53.162;6.788;2023-06-14T04:05:16;5.90;;;2.95;;
55633;SDS011;41504;53.162;6.788;2023-06-14T04:07:44;5.63;;;2.67;;
55633;SDS011;41504;53.162;6.788;2023-06-14T04:10:14;5.85;;;2.60;;
55633;SDS011;41504;53.162;6.788;2023-06-14T04:12:40;5.05;;;2.92;;
55633;SDS011;41504;53.162;6.788;2023-06-14T04:15:07;5.93;;;3.10;;
55633;SDS011;41504;53.162;6.788;2023-06-14T04:17:36;6.22;;;2.92;;
55633;SDS011;41504;53.162;6.788;2023-06-14T04:20:02;6.07;;;3.13;;
55633;SDS011;41504;53.162;6.788;2023-06-14T04:22:31;6.28;;;2.92;;
55633;SDS011;41504;53.162;6.788;2023-06-14T04:24:58;5.90;;;3.15;;
55633;SDS011;41504;53.162;6.788;2023-06-14T04:27:25;5.70;;;3.20;;
55633;SDS011;41504;53.162;6.788;2023-06-14T04:29:52;7.75;;;3.28;;
55633;SDS011;41504;53.162;6.788;2023-06-14T04:32:25;6.60;;;3.40;;
55633;SDS011;41504;53.162;6.788;2023-06-14T04:34:55;7.32;;;3.40;;
55633;SDS011;41504;53.162;6.788;2023-06-14T04:37:21;8.05;;;3.30;;
55633;SDS011;41504;53.162;6.788;2023-06-14T04:39:47;5.90;;;2.85;;
55633;SDS011;41504;53.162;6.788;2023-06-14T04:42:14;6.53;;;3.33;;
55633;SDS011;41504;53.162;6.788;2023-06-14T04:44:41;5.78;;;3.00;;
55633;SDS011;41504;53.162;6.788;2023-06-14T04:47:09;8.95;;;3.13;;
55633;SDS011;41504;53.162;6.788;2023-06-14T04:49:35;5.97;;;3.15;;
55633;SDS011;41504;53.162;6.788;2023-06-14T04:52:00;6.32;;;3.03;;
55633;SDS011;41504;53.162;6.788;2023-06-14T04:54:26;6.13;;;3.00;;
55633;SDS011;41504;53.162;6.788;2023-06-14T04:56:53;7.05;;;3.20;;
55633;SDS011;41504;53.162;6.788;2023-06-14T04:59:20;6.88;;;3.08;;
55633;SDS011;41504;53.162;6.788;2023-06-14T05:01:48;7.45;;;3.35;;
55633;SDS011;41504;53.162;6.788;2023-06-14T05:04:15;6.38;;;3.40;;
55633;SDS011;41504;53.162;6.788;2023-06-14T05:06:42;6.55;;;2.90;;
55633;SDS011;41504;53.162;6.788;2023-06-14T05:09:10;7.43;;;3.40;;
55633;SDS011;41504;53.162;6.788;2023-06-14T05:11:36;6.75;;;3.28;;
55633;SDS011;41504;53.162;6.788;2023-06-14T05:14:02;7.80;;;3.00;;
55633;SDS011;41504;53.162;6.788;2023-06-14T05:16:28;7.05;;;3.20;;
55633;SDS011;41504;53.162;6.788;2023-06-14T05:18:54;7.95;;;3.08;;
55633;SDS011;41504;53.162;6.788;2023-06-14T05:21:20;6.65;;;3.10;;
55633;SDS011;41504;53.162;6.788;2023-06-14T05:23:46;7.50;;;3.38;;
55633;SDS011;41504;53.162;6.788;2023-06-14T05:26:12;6.07;;;3.03;;
55633;SDS011;41504;53.162;6.788;2023-06-14T05:28:38;6.90;;;2.80;;
55633;SDS011;41504;53.162;6.788;2023-06-14T05:31:04;4.93;;;2.72;;
55633;SDS011;41504;53.162;6.788;2023-06-14T05:33:30;7.28;;;3.30;;
55633;SDS011;41504;53.162;6.788;2023-06-14T05:35:55;7.40;;;3.50;;
55633;SDS011;41504;53.162;6.788;2023-06-14T05:38:21;5.88;;;3.25;;
55633;SDS011;41504;53.162;6.788;2023-06-14T05:40:47;8.63;;;2.97;;
55633;SDS011;41504;53.162;6.788;2023-06-14T05:43:13;7.18;;;3.17;;
55633;SDS011;41504;53.162;6.788;2023-06-14T05:45:38;7.93;;;3.30;;
55633;SDS011;41504;53.162;6.788;2023-06-14T05:48:04;8.82;;;3.28;;
55633;SDS011;41504;53.162;6.788;2023-06-14T05:50:30;8.23;;;4.05;;
55633;SDS011;41504;53.162;6.788;2023-06-14T05:52:56;7.82;;;3.00;;
55633;SDS011;41504;53.162;6.788;2023-06-14T05:55:21;7.05;;;3.33;;
55633;SDS011;41504;53.162;6.788;2023-06-14T05:57:47;6.38;;;3.40;;
55633;SDS011;41504;53.162;6.788;2023-06-14T06:00:13;7.65;;;3.03;;
55633;SDS011;41504;53.162;6.788;2023-06-14T06:02:43;7.35;;;3.70;;
55633;SDS011;41504;53.162;6.788;2023-06-14T06:05:10;7.35;;;3.45;;
55633;SDS011;41504;53.162;6.788;2023-06-14T06:07:36;7.30;;;3.10;;
55633;SDS011;41504;53.162;6.788;2023-06-14T06:10:03;7.32;;;3.42;;
55633;SDS011;41504;53.162;6.788;2023-06-14T06:12:29;8.38;;;3.35;;
55633;SDS011;41504;53.162;6.788;2023-06-14T06:14:55;7.20;;;2.92;;
55633;SDS011;41504;53.162;6.788;2023-06-14T06:17:21;8.32;;;2.88;;
55633;SDS011;41504;53.162;6.788;2023-06-14T06:19:47;6.22;;;3.28;;
55633;SDS011;41504;53.162;6.788;2023-06-14T06:22:13;8.02;;;3.38;;
55633;SDS011;41504;53.162;6.788;2023-06-14T06:24:38;6.45;;;2.83;;
55633;SDS011;41504;53.162;6.788;2023-06-14T06:27:04;7.50;;;3.42;;
55633;SDS011;41504;53.162;6.788;2023-06-14T06:29:33;7.20;;;3.25;;
55633;SDS011;41504;53.162;6.788;2023-06-14T06:31:59;5.57;;;2.78;;
55633;SDS011;41504;53.162;6.788;2023-06-14T06:34:24;7.60;;;3.10;;
55633;SDS011;41504;53.162;6.788;2023-06-14T06:36:50;5.25;;;2.95;;
55633;SDS011;41504;53.162;6.788;2023-06-14T06:39:16;10.90;;;3.25;;
55633;SDS011;41504;53.162;6.788;2023-06-14T06:41:42;7.00;;;3.33;;
55633;SDS011;41504;53.162;6.788;2023-06-14T06:44:07;6.20;;;2.75;;
55633;SDS011;41504;53.162;6.788;2023-06-14T06:46:35;6.82;;;3.15;;
55633;SDS011;41504;53.162;6.788;2023-06-14T06:49:05;5.82;;;3.25;;
55633;SDS011;41504;53.162;6.788;2023-06-14T06:51:35;8.15;;;3.50;;
55633;SDS011;41504;53.162;6.788;2023-06-14T06:54:03;9.13;;;3.00;;
55633;SDS011;41504;53.162;6.788;2023-06-14T06:56:31;6.28;;;3.05;;
55633;SDS011;41504;53.162;6.788;2023-06-14T06:58:56;6.88;;;2.80;;
55633;SDS011;41504;53.162;6.788;2023-06-14T07:01:22;7.25;;;2.78;;
55633;SDS011;41504;53.162;6.788;2023-06-14T07:03:49;7.18;;;3.20;;
55633;SDS011;41504;53.162;6.788;2023-06-14T07:06:15;7.60;;;2.72;;
55633;SDS011;41504;53.162;6.788;2023-06-14T07:08:43;6.75;;;2.72;;
55633;SDS011;41504;53.162;6.788;2023-06-14T07:11:09;6.15;;;2.70;;
55633;SDS011;41504;53.162;6.788;2023-06-14T07:13:35;7.70;;;3.10;;
55633;SDS011;41504;53.162;6.788;2023-06-14T07:16:01;5.82;;;2.75;;
55633;SDS011;41504;53.162;6.788;2023-06-14T07:18:29;6.18;;;2.90;;
55633;SDS011;41504;53.162;6.788;2023-06-14T07:20:56;7.68;;;2.63;;
55633;SDS011;41504;53.162;6.788;2023-06-14T07:23:22;7.55;;;2.70;;
55633;SDS011;41504;53.162;6.788;2023-06-14T07:25:48;7.43;;;2.78;;
55633;SDS011;41504;53.162;6.788;2023-06-14T07:28:16;5.05;;;2.55;;
55633;SDS011;41504;53.162;6.788;2023-06-14T07:30:43;7.60;;;2.67;;
55633;SDS011;41504;53.162;6.788;2023-06-14T07:33:09;5.05;;;2.63;;
55633;SDS011;41504;53.162;6.788;2023-06-14T07:35:35;6.75;;;2.90;;
55633;SDS011;41504;53.162;6.788;2023-06-14T07:38:01;5.97;;;2.83;;
55633;SDS011;41504;53.162;6.788;2023-06-14T07:40:26;6.25;;;2.92;;
55633;SDS011;41504;53.162;6.788;2023-06-14T07:42:52;5.82;;;2.72;;
55633;SDS011;41504;53.162;6.788;2023-06-14T07:45:19;6.00;;;2.92;;
55633;SDS011;41504;53.162;6.788;2023-06-14T07:47:45;6.20;;;2.50;;
55633;SDS011;41504;53.162;6.788;2023-06-14T07:50:11;5.50;;;2.67;;
55633;SDS011;41504;53.162;6.788;2023-06-14T07:52:41;7.10;;;2.90;;
55633;SDS011;41504;53.162;6.788;2023-06-14T07:55:07;5.63;;;2.50;;
55633;SDS011;41504;53.162;6.788;2023-06-14T07:57:36;4.80;;;2.33;;
55633;SDS011;41504;53.162;6.788;2023-06-14T08:00:04;6.28;;;2.72;;
55633;SDS011;41504;53.162;6.788;2023-06-14T08:02:31;7.22;;;2.80;;
55633;SDS011;41504;53.162;6.788;2023-06-14T08:04:57;5.30;;;2.70;;
55633;SDS011;41504;53.162;6.788;2023-06-14T08:07:25;5.40;;;2.40;;
55633;SDS011;41504;53.162;6.788;2023-06-14T08:09:51;8.07;;;2.72;;
55633;SDS011;41504;53.162;6.788;2023-06-14T08:12:16;4.95;;;2.38;;
55633;SDS011;41504;53.162;6.788;2023-06-14T08:14:42;6.05;;;2.38;;
55633;SDS011;41504;53.162;6.788;2023-06-14T08:17:11;6.07;;;2.70;;
55633;SDS011;41504;53.162;6.788;2023-06-14T08:19:37;5.95;;;2.20;;
55633;SDS011;41504;53.162;6.788;2023-06-14T08:22:02;6.28;;;2.42;;
55633;SDS011;41504;53.162;6.788;2023-06-14T08:24:28;6.32;;;2.78;;
55633;SDS011;41504;53.162;6.788;2023-06-14T08:26:54;5.40;;;2.15;;
55633;SDS011;41504;53.162;6.788;2023-06-14T08:29:21;5.65;;;2.58;;
55633;SDS011;41504;53.162;6.788;2023-06-14T08:31:47;7.95;;;2.50;;
55633;SDS011;41504;53.162;6.788;2023-06-14T08:34:13;5.72;;;2.40;;
55633;SDS011;41504;53.162;6.788;2023-06-14T08:36:39;5.70;;;2.47;;
55633;SDS011;41504;53.162;6.788;2023-06-14T08:39:05;5.45;;;2.60;;
55633;SDS011;41504;53.162;6.788;2023-06-14T08:41:31;4.20;;;2.25;;
55633;SDS011;41504;53.162;6.788;2023-06-14T08:43:57;7.80;;;2.58;;
55633;SDS011;41504;53.162;6.788;2023-06-14T08:46:25;4.97;;;2.50;;
55633;SDS011;41504;53.162;6.788;2023-06-14T08:48:52;5.10;;;2.70;;
55633;SDS011;41504;53.162;6.788;2023-06-14T08:51:24;6.35;;;3.00;;
55633;SDS011;41504;53.162;6.788;2023-06-14T08:53:52;6.93;;;2.63;;
55633;SDS011;41504;53.162;6.788;2023-06-14T08:56:23;6.05;;;2.80;;
55633;SDS011;41504;53.162;6.788;2023-06-14T08:58:51;6.30;;;2.53;;
55633;SDS011;41504;53.162;6.788;2023-06-14T09:01:17;5.85;;;2.50;;
55633;SDS011;41504;53.162;6.788;2023-06-14T09:03:50;6.78;;;2.70;;
55633;SDS011;41504;53.162;6.788;2023-06-14T09:06:16;6.65;;;2.90;;
55633;SDS011;41504;53.162;6.788;2023-06-14T09:08:43;5.97;;;2.70;;
55633;SDS011;41504;53.162;6.788;2023-06-14T09:11:14;5.72;;;2.67;;
55633;SDS011;41504;53.162;6.788;2023-06-14T09:13:49;7.78;;;2.40;;
55633;SDS011;41504;53.162;6.788;2023-06-14T09:16:15;5.55;;;2.50;;
55633;SDS011;41504;53.162;6.788;2023-06-14T09:18:46;5.05;;;2.47;;
55633;SDS011;41504;53.162;6.788;2023-06-14T09:23:42;6.75;;;2.75;;
55633;SDS011;41504;53.162;6.788;2023-06-14T09:26:09;5.03;;;2.97;;
55633;SDS011;41504;53.162;6.788;2023-06-14T09:28:42;4.43;;;2.40;;
55633;SDS011;41504;53.162;6.788;2023-06-14T09:31:14;7.88;;;3.20;;
55633;SDS011;41504;53.162;6.788;2023-06-14T09:33:44;5.50;;;2.83;;
55633;SDS011;41504;53.162;6.788;2023-06-14T09:36:23;7.13;;;2.60;;
55633;SDS011;41504;53.162;6.788;2023-06-14T09:41:20;4.40;;;2.13;;
55633;SDS011;41504;53.162;6.788;2023-06-14T09:43:56;5.82;;;2.40;;
55633;SDS011;41504;53.162;6.788;2023-06-14T09:46:26;4.65;;;2.20;;
55633;SDS011;41504;53.162;6.788;2023-06-14T09:48:53;7.55;;;2.80;;
55633;SDS011;41504;53.162;6.788;2023-06-14T09:51:19;7.82;;;2.50;;
55633;SDS011;41504;53.162;6.788;2023-06-14T09:53:49;6.05;;;2.65;;
55633;SDS011;41504;53.162;6.788;2023-06-14T09:56:17;7.50;;;2.50;;
55633;SDS011;41504;53.162;6.788;2023-06-14T09:58:50;6.00;;;2.83;;
55633;SDS011;41504;53.162;6.788;2023-06-14T10:01:20;5.45;;;2.22;;
55633;SDS011;41504;53.162;6.788;2023-06-14T10:03:50;5.85;;;2.40;;
55633;SDS011;41504;53.162;6.788;2023-06-14T10:06:22;7.00;;;2.70;;
55633;SDS011;41504;53.162;6.788;2023-06-14T10:08:50;5.88;;;2.88;;
55633;SDS011;41504;53.162;6.788;2023-06-14T10:11:17;5.47;;;2.25;;
55633;SDS011;41504;53.162;6.788;2023-06-14T10:13:43;5.63;;;2.38;;
55633;SDS011;41504;53.162;6.788;2023-06-14T10:16:12;7.20;;;2.53;;
55633;SDS011;41504;53.162;6.788;2023-06-14T10:21:59;4.68;;;2.60;;
55633;SDS011;41504;53.162;6.788;2023-06-14T10:24:37;5.43;;;2.30;;
55633;SDS011;41504;53.162;6.788;2023-06-14T10:27:07;7.65;;;2.03;;
55633;SDS011;41504;53.162;6.788;2023-06-14T10:32:17;4.10;;;2.40;;
55633;SDS011;41504;53.162;6.788;2023-06-14T10:34:44;4.25;;;2.33;;
55633;SDS011;41504;53.162;6.788;2023-06-14T10:37:12;4.82;;;2.22;;
55633;SDS011;41504;53.162;6.788;2023-06-14T10:39:43;5.20;;;2.22;;
55633;SDS011;41504;53.162;6.788;2023-06-14T10:42:11;4.18;;;2.25;;
55633;SDS011;41504;53.162;6.788;2023-06-14T10:47:19;5.78;;;2.28;;
55633;SDS011;41504;53.162;6.788;2023-06-14T10:50:07;5.47;;;2.25;;
55633;SDS011;41504;53.162;6.788;2023-06-14T10:52:37;5.40;;;1.98;;
55633;SDS011;41504;53.162;6.788;2023-06-14T10:55:11;4.75;;;2.10;;
55633;SDS011;41504;53.162;6.788;2023-06-14T10:57:46;4.47;;;2.00;;
55633;SDS011;41504;53.162;6.788;2023-06-14T11:00:17;4.00;;;1.98;;
55633;SDS011;41504;53.162;6.788;2023-06-14T11:08:17;3.25;;;1.80;;
55633;SDS011;41504;53.162;6.788;2023-06-14T11:10:49;5.22;;;2.00;;
55633;SDS011;41504;53.162;6.788;2023-06-14T11:13:18;5.72;;;2.10;;
55633;SDS011;41504;53.162;6.788;2023-06-14T11:15:45;3.85;;;1.88;;
55633;SDS011;41504;53.162;6.788;2023-06-14T11:18:12;4.35;;;2.00;;
55633;SDS011;41504;53.162;6.788;2023-06-14T11:20:39;4.28;;;2.00;;
55633;SDS011;41504;53.162;6.788;2023-06-14T11:23:05;2.92;;;1.60;;
55633;SDS011;41504;53.162;6.788;2023-06-14T11:25:31;3.30;;;1.70;;
55633;SDS011;41504;53.162;6.788;2023-06-14T11:27:57;4.93;;;1.80;;
55633;SDS011;41504;53.162;6.788;2023-06-14T11:30:26;5.63;;;2.00;;
55633;SDS011;41504;53.162;6.788;2023-06-14T11:32:52;3.88;;;1.77;;
55633;SDS011;41504;53.162;6.788;2023-06-14T11:35:19;5.78;;;1.50;;
55633;SDS011;41504;53.162;6.788;2023-06-14T11:37:54;4.55;;;2.20;;
55633;SDS011;41504;53.162;6.788;2023-06-14T11:40:25;4.90;;;1.63;;
55633;SDS011;41504;53.162;6.788;2023-06-14T11:42:59;3.30;;;1.80;;
55633;SDS011;41504;53.162;6.788;2023-06-14T11:45:26;4.70;;;2.00;;
55633;SDS011;41504;53.162;6.788;2023-06-14T11:47:54;4.95;;;2.03;;
55633;SDS011;41504;53.162;6.788;2023-06-14T11:50:23;4.03;;;1.90;;
55633;SDS011;41504;53.162;6.788;2023-06-14T11:52:56;5.93;;;1.90;;
55633;SDS011;41504;53.162;6.788;2023-06-14T11:55:41;5.78;;;1.98;;
55633;SDS011;41504;53.162;6.788;2023-06-14T11:58:10;6.88;;;2.10;;
55633;SDS011;41504;53.162;6.788;2023-06-14T12:00:40;6.15;;;2.30;;
55633;SDS011;41504;53.162;6.788;2023-06-14T12:03:07;7.07;;;2.33;;
55633;SDS011;41504;53.162;6.788;2023-06-14T12:05:32;4.82;;;2.00;;
55633;SDS011;41504;53.162;6.788;2023-06-14T12:07:59;6.07;;;2.00;;
55633;SDS011;41504;53.162;6.788;2023-06-14T12:10:30;6.68;;;2.20;;
55633;SDS011;41504;53.162;6.788;2023-06-14T12:13:06;6.97;;;2.90;;
55633;SDS011;41504;53.162;6.788;2023-06-14T12:15:31;7.95;;;2.60;;
55633;SDS011;41504;53.162;6.788;2023-06-14T12:17:57;6.18;;;2.13;;
55633;SDS011;41504;53.162;6.788;2023-06-14T12:20:28;7.80;;;2.75;;
55633;SDS011;41504;53.162;6.788;2023-06-14T12:22:57;7.03;;;2.42;;
55633;SDS011;41504;53.162;6.788;2023-06-14T12:25:28;4.25;;;2.00;;
55633;SDS011;41504;53.162;6.788;2023-06-14T12:28:03;6.22;;;2.05;;
55633;SDS011;41504;53.162;6.788;2023-06-14T12:30:32;5.25;;;2.28;;
55633;SDS011;41504;53.162;6.788;2023-06-14T12:32:58;5.03;;;2.35;;
55633;SDS011;41504;53.162;6.788;2023-06-14T12:35:24;7.05;;;2.40;;
55633;SDS011;41504;53.162;6.788;2023-06-14T12:37:53;4.70;;;1.90;;
55633;SDS011;41504;53.162;6.788;2023-06-14T12:40:19;3.67;;;2.10;;
55633;SDS011;41504;53.162;6.788;2023-06-14T12:42:44;5.00;;;1.98;;
55633;SDS011;41504;53.162;6.788;2023-06-14T12:45:12;4.70;;;2.47;;
55633;SDS011;41504;53.162;6.788;2023-06-14T12:47:38;4.85;;;2.10;;
55633;SDS011;41504;53.162;6.788;2023-06-14T12:50:04;5.88;;;2.50;;
55633;SDS011;41504;53.162;6.788;2023-06-14T12:52:31;6.32;;;2.10;;
55633;SDS011;41504;53.162;6.788;2023-06-14T12:55:09;4.05;;;1.90;;
55633;SDS011;41504;53.162;6.788;2023-06-14T12:57:35;4.40;;;2.25;;
55633;SDS011;41504;53.162;6.788;2023-06-14T13:00:02;4.82;;;2.35;;
55633;SDS011;41504;53.162;6.788;2023-06-14T13:02:28;5.13;;;2.78;;
55633;SDS011;41504;53.162;6.788;2023-06-14T13:04:54;7.18;;;2.85;;
55633;SDS011;41504;53.162;6.788;2023-06-14T13:07:20;4.70;;;2.35;;
55633;SDS011;41504;53.162;6.788;2023-06-14T13:09:45;4.82;;;2.10;;
55633;SDS011;41504;53.162;6.788;2023-06-14T13:12:11;4.57;;;2.00;;
55633;SDS011;41504;53.162;6.788;2023-06-14T13:14:37;5.78;;;2.10;;
55633;SDS011;41504;53.162;6.788;2023-06-14T13:17:12;5.00;;;2.17;;
55633;SDS011;41504;53.162;6.788;2023-06-14T13:19:41;3.93;;;1.90;;
55633;SDS011;41504;53.162;6.788;2023-06-14T13:22:10;6.25;;;2.05;;
55633;SDS011;41504;53.162;6.788;2023-06-14T13:24:36;5.10;;;2.40;;
55633;SDS011;41504;53.162;6.788;2023-06-14T13:27:02;4.97;;;2.22;;
55633;SDS011;41504;53.162;6.788;2023-06-14T13:29:28;3.95;;;2.22;;
55633;SDS011;41504;53.162;6.788;2023-06-14T13:31:55;6.88;;;2.20;;
55633;SDS011;41504;53.162;6.788;2023-06-14T13:34:24;3.92;;;2.25;;
55633;SDS011;41504;53.162;6.788;2023-06-14T13:36:50;4.65;;;2.00;;
55633;SDS011;41504;53.162;6.788;2023-06-14T13:39:16;6.05;;;2.30;;
55633;SDS011;41504;53.162;6.788;2023-06-14T13:41:41;7.00;;;2.22;;
55633;SDS011;41504;53.162;6.788;2023-06-14T13:44:07;8.32;;;2.13;;
55633;SDS011;41504;53.162;6.788;2023-06-14T13:46:33;4.88;;;2.50;;
55633;SDS011;41504;53.162;6.788;2023-06-14T13:48:59;5.22;;;2.47;;
55633;SDS011;41504;53.162;6.788;2023-06-14T13:51:26;6.07;;;2.40;;
55633;SDS011;41504;53.162;6.788;2023-06-14T13:53:52;5.18;;;2.40;;
55633;SDS011;41504;53.162;6.788;2023-06-14T13:56:20;5.47;;;2.20;;
55633;SDS011;41504;53.162;6.788;2023-06-14T13:58:50;4.88;;;2.25;;
55633;SDS011;41504;53.162;6.788;2023-06-14T14:01:17;5.53;;;2.05;;
55633;SDS011;41504;53.162;6.788;2023-06-14T14:03:54;4.40;;;2.10;;
55633;SDS011;41504;53.162;6.788;2023-06-14T14:06:19;6.30;;;2.10;;
55633;SDS011;41504;53.162;6.788;2023-06-14T14:08:45;4.90;;;2.22;;
55633;SDS011;41504;53.162;6.788;2023-06-14T14:11:11;4.70;;;2.30;;
55633;SDS011;41504;53.162;6.788;2023-06-14T14:13:37;5.70;;;2.67;;
55633;SDS011;41504;53.162;6.788;2023-06-14T14:16:07;4.57;;;2.40;;
55633;SDS011;41504;53.162;6.788;2023-06-14T14:18:42;4.32;;;2.40;;
55633;SDS011;41504;53.162;6.788;2023-06-14T14:21:11;6.80;;;2.72;;
55633;SDS011;41504;53.162;6.788;2023-06-14T14:23:37;4.40;;;2.00;;
55633;SDS011;41504;53.162;6.788;2023-06-14T14:26:03;6.72;;;2.20;;
55633;SDS011;41504;53.162;6.788;2023-06-14T14:28:30;4.63;;;2.25;;
55633;SDS011;41504;53.162;6.788;2023-06-14T14:30:56;4.72;;;2.10;;
55633;SDS011;41504;53.162;6.788;2023-06-14T14:33:22;4.28;;;2.10;;
55633;SDS011;41504;53.162;6.788;2023-06-14T14:35:47;4.07;;;2.40;;
55633;SDS011;41504;53.162;6.788;2023-06-14T14:38:18;5.60;;;2.25;;
55633;SDS011;41504;53.162;6.788;2023-06-14T14:40:44;4.00;;;2.22;;
55633;SDS011;41504;53.162;6.788;2023-06-14T14:43:10;4.75;;;2.20;;
55633;SDS011;41504;53.162;6.788;2023-06-14T14:45:36;4.38;;;2.30;;
55633;SDS011;41504;53.162;6.788;2023-06-14T14:48:02;5.03;;;2.53;;
55633;SDS011;41504;53.162;6.788;2023-06-14T14:50:28;4.70;;;2.45;;
55633;SDS011;41504;53.162;6.788;2023-06-14T14:52:54;5.95;;;2.50;;
55633;SDS011;41504;53.162;6.788;2023-06-14T14:55:21;6.63;;;2.28;;
55633;SDS011;41504;53.162;6.788;2023-06-14T14:57:47;5.82;;;2.53;;
55633;SDS011;41504;53.162;6.788;2023-06-14T15:00:13;5.57;;;2.38;;
55633;SDS011;41504;53.162;6.788;2023-06-14T15:02:40;4.53;;;2.17;;
55633;SDS011;41504;53.162;6.788;2023-06-14T15:05:06;4.32;;;2.42;;
55633;SDS011;41504;53.162;6.788;2023-06-14T15:07:35;5.95;;;2.30;;
55633;SDS011;41504;53.162;6.788;2023-06-14T15:10:01;4.78;;;2.38;;
55633;SDS011;41504;53.162;6.788;2023-06-14T15:12:27;4.80;;;2.38;;
55633;SDS011;41504;53.162;6.788;2023-06-14T15:14:53;4.50;;;2.70;;